sensor_id;sensor_type;location;lat;lon;timestamp;P1;durP1;ratioP1;P2;durP2;ratioP2
39214;SDS011;24932;51.746;14.334;2022-08-19T00:00:39;16.98;;;11.6;;
39214;SDS011;24932;51.746;14.334;2022-08-19T00:04:40;16.65;;;12.02;;
39214;SDS011;24932;51.746;14.334;2022-08-19T00:08:43;13.02;;;11.2;;
39214;SDS011;24932;51.746;14.334;2022-08-19T00:12:47;15.85;;;12.18;;
39214;SDS011;24932;51.746;14.334;2022-08-19T00:16:41;16.12;;;12.25;;
39214;SDS011;24932;51.746;14.334;2022-08-19T00:20:39;14.15;;;12.7;;
39214;SDS011;24932;51.746;14.334;2022-08-19T00:24:40;14.87;;;13.27;;
39214;SDS011;24932;51.746;14.334;2022-08-19T00:28:41;17.75;;;13.9;;
39214;SDS011;24932;51.746;14.334;2022-08-19T00:32:40;18.75;;;13.8;;
39214;SDS011;24932;51.746;14.334;2022-08-19T00:36:41;17.02;;;14.25;;
39214;SDS011;24932;51.746;14.334;2022-08-19T00:40:42;19.37;;;13.32;;
39214;SDS011;24932;51.746;14.334;2022-08-19T00:44:39;20.02;;;13.6;;
39214;SDS011;24932;51.746;14.334;2022-08-19T00:48:40;18.27;;;14.15;;
39214;SDS011;24932;51.746;14.334;2022-08-19T00:52:42;21.48;;;13.07;;
39214;SDS011;24932;51.746;14.334;2022-08-19T00:56:41;16.1;;;13.88;;
39214;SDS011;24932;51.746;14.334;2022-08-19T01:00:40;16.12;;;14.15;;
39214;SDS011;24932;51.746;14.334;2022-08-19T01:04:39;22.42;;;13.0;;
39214;SDS011;24932;51.746;14.334;2022-08-19T01:08:41;16.9;;;13.55;;
39214;SDS011;24932;51.746;14.334;2022-08-19T01:12:40;18.55;;;13.35;;
39214;SDS011;24932;51.746;14.334;2022-08-19T01:16:39;16.37;;;13.77;;
39214;SDS011;24932;51.746;14.334;2022-08-19T01:20:40;21.5;;;14.38;;
39214;SDS011;24932;51.746;14.334;2022-08-19T01:24:50;18.9;;;14.55;;
39214;SDS011;24932;51.746;14.334;2022-08-19T01:28:43;20.5;;;13.85;;
39214;SDS011;24932;51.746;14.334;2022-08-19T01:32:40;19.02;;;13.98;;
39214;SDS011;24932;51.746;14.334;2022-08-19T01:36:40;18.75;;;13.98;;
39214;SDS011;24932;51.746;14.334;2022-08-19T01:40:40;17.25;;;13.82;;
39214;SDS011;24932;51.746;14.334;2022-08-19T01:44:41;17.0;;;15.3;;
39214;SDS011;24932;51.746;14.334;2022-08-19T01:48:41;16.0;;;14.07;;
39214;SDS011;24932;51.746;14.334;2022-08-19T01:52:40;18.77;;;14.73;;
39214;SDS011;24932;51.746;14.334;2022-08-19T01:56:39;16.98;;;15.23;;
39214;SDS011;24932;51.746;14.334;2022-08-19T02:00:41;17.6;;;15.02;;
39214;SDS011;24932;51.746;14.334;2022-08-19T02:04:40;20.12;;;15.27;;
39214;SDS011;24932;51.746;14.334;2022-08-19T02:08:41;20.0;;;15.38;;
39214;SDS011;24932;51.746;14.334;2022-08-19T02:12:40;20.9;;;15.68;;
39214;SDS011;24932;51.746;14.334;2022-08-19T02:16:40;17.17;;;15.38;;
39214;SDS011;24932;51.746;14.334;2022-08-19T02:20:40;21.8;;;16.1;;
39214;SDS011;24932;51.746;14.334;2022-08-19T02:24:40;21.65;;;15.35;;
39214;SDS011;24932;51.746;14.334;2022-08-19T02:28:41;20.7;;;16.08;;
39214;SDS011;24932;51.746;14.334;2022-08-19T02:32:45;19.37;;;16.8;;
39214;SDS011;24932;51.746;14.334;2022-08-19T02:36:42;25.23;;;18.4;;
39214;SDS011;24932;51.746;14.334;2022-08-19T02:40:40;20.1;;;17.98;;
39214;SDS011;24932;51.746;14.334;2022-08-19T02:44:41;22.23;;;19.4;;
39214;SDS011;24932;51.746;14.334;2022-08-19T02:48:40;23.08;;;20.65;;
39214;SDS011;24932;51.746;14.334;2022-08-19T02:52:39;22.6;;;20.15;;
39214;SDS011;24932;51.746;14.334;2022-08-19T02:56:41;27.48;;;21.23;;
39214;SDS011;24932;51.746;14.334;2022-08-19T03:00:43;27.25;;;22.48;;
39214;SDS011;24932;51.746;14.334;2022-08-19T03:04:41;27.65;;;21.45;;
39214;SDS011;24932;51.746;14.334;2022-08-19T03:08:40;22.02;;;19.83;;
39214;SDS011;24932;51.746;14.334;2022-08-19T03:12:41;25.17;;;19.1;;
39214;SDS011;24932;51.746;14.334;2022-08-19T03:16:41;21.8;;;19.55;;
39214;SDS011;24932;51.746;14.334;2022-08-19T03:20:41;25.92;;;20.48;;
39214;SDS011;24932;51.746;14.334;2022-08-19T03:24:40;22.75;;;20.23;;
39214;SDS011;24932;51.746;14.334;2022-08-19T03:28:40;21.9;;;19.6;;
39214;SDS011;24932;51.746;14.334;2022-08-19T03:32:45;24.12;;;20.88;;
39214;SDS011;24932;51.746;14.334;2022-08-19T03:36:40;24.87;;;20.77;;
39214;SDS011;24932;51.746;14.334;2022-08-19T03:40:40;23.98;;;21.42;;
39214;SDS011;24932;51.746;14.334;2022-08-19T03:44:40;26.42;;;21.48;;
39214;SDS011;24932;51.746;14.334;2022-08-19T03:48:40;25.08;;;21.12;;
39214;SDS011;24932;51.746;14.334;2022-08-19T03:52:48;24.8;;;21.3;;
39214;SDS011;24932;51.746;14.334;2022-08-19T03:56:40;22.42;;;20.02;;
39214;SDS011;24932;51.746;14.334;2022-08-19T04:00:41;25.52;;;22.83;;
39214;SDS011;24932;51.746;14.334;2022-08-19T04:04:42;25.5;;;21.37;;
39214;SDS011;24932;51.746;14.334;2022-08-19T04:08:40;26.35;;;22.23;;
39214;SDS011;24932;51.746;14.334;2022-08-19T04:12:41;24.08;;;21.7;;
39214;SDS011;24932;51.746;14.334;2022-08-19T04:16:40;23.92;;;21.5;;
39214;SDS011;24932;51.746;14.334;2022-08-19T04:20:41;23.75;;;21.17;;
39214;SDS011;24932;51.746;14.334;2022-08-19T04:24:39;24.23;;;21.35;;
39214;SDS011;24932;51.746;14.334;2022-08-19T04:28:40;23.7;;;20.67;;
39214;SDS011;24932;51.746;14.334;2022-08-19T04:32:41;25.52;;;21.1;;
39214;SDS011;24932;51.746;14.334;2022-08-19T04:36:41;25.05;;;21.08;;
39214;SDS011;24932;51.746;14.334;2022-08-19T04:40:41;24.92;;;21.62;;
39214;SDS011;24932;51.746;14.334;2022-08-19T04:44:46;25.5;;;20.85;;
39214;SDS011;24932;51.746;14.334;2022-08-19T04:48:48;25.98;;;21.05;;
39214;SDS011;24932;51.746;14.334;2022-08-19T04:52:40;26.85;;;20.27;;
39214;SDS011;24932;51.746;14.334;2022-08-19T04:56:40;26.37;;;18.87;;
39214;SDS011;24932;51.746;14.334;2022-08-19T05:00:40;20.95;;;18.52;;
39214;SDS011;24932;51.746;14.334;2022-08-19T05:04:40;21.08;;;18.67;;
39214;SDS011;24932;51.746;14.334;2022-08-19T05:08:41;21.12;;;17.4;;
39214;SDS011;24932;51.746;14.334;2022-08-19T05:12:40;22.5;;;18.33;;
39214;SDS011;24932;51.746;14.334;2022-08-19T05:16:40;20.5;;;17.58;;
39214;SDS011;24932;51.746;14.334;2022-08-19T05:20:41;20.65;;;18.45;;
39214;SDS011;24932;51.746;14.334;2022-08-19T05:25:11;20.45;;;17.62;;
39214;SDS011;24932;51.746;14.334;2022-08-19T05:28:40;20.73;;;17.35;;
39214;SDS011;24932;51.746;14.334;2022-08-19T05:32:41;21.9;;;17.5;;
39214;SDS011;24932;51.746;14.334;2022-08-19T05:36:43;19.8;;;17.62;;
39214;SDS011;24932;51.746;14.334;2022-08-19T05:40:40;21.77;;;17.67;;
39214;SDS011;24932;51.746;14.334;2022-08-19T05:44:42;22.02;;;18.33;;
39214;SDS011;24932;51.746;14.334;2022-08-19T05:48:39;20.52;;;18.5;;
39214;SDS011;24932;51.746;14.334;2022-08-19T05:52:50;23.62;;;18.77;;
39214;SDS011;24932;51.746;14.334;2022-08-19T05:56:41;21.08;;;17.42;;
39214;SDS011;24932;51.746;14.334;2022-08-19T06:00:40;22.1;;;17.48;;
39214;SDS011;24932;51.746;14.334;2022-08-19T06:04:41;21.55;;;18.73;;
39214;SDS011;24932;51.746;14.334;2022-08-19T06:08:40;20.37;;;16.6;;
39214;SDS011;24932;51.746;14.334;2022-08-19T06:12:40;18.15;;;15.13;;
39214;SDS011;24932;51.746;14.334;2022-08-19T06:16:41;21.33;;;16.35;;
39214;SDS011;24932;51.746;14.334;2022-08-19T06:20:56;21.6;;;15.65;;
39214;SDS011;24932;51.746;14.334;2022-08-19T06:24:40;17.27;;;15.48;;
39214;SDS011;24932;51.746;14.334;2022-08-19T06:28:41;18.37;;;16.48;;
39214;SDS011;24932;51.746;14.334;2022-08-19T06:32:43;22.62;;;17.15;;
39214;SDS011;24932;51.746;14.334;2022-08-19T06:36:41;19.25;;;16.65;;
39214;SDS011;24932;51.746;14.334;2022-08-19T06:40:40;18.73;;;14.95;;
39214;SDS011;24932;51.746;14.334;2022-08-19T06:44:44;17.98;;;15.05;;
39214;SDS011;24932;51.746;14.334;2022-08-19T06:48:46;17.85;;;14.05;;
39214;SDS011;24932;51.746;14.334;2022-08-19T06:52:41;24.5;;;15.55;;
39214;SDS011;24932;51.746;14.334;2022-08-19T06:56:41;16.77;;;14.87;;
39214;SDS011;24932;51.746;14.334;2022-08-19T07:00:40;19.42;;;15.45;;
39214;SDS011;24932;51.746;14.334;2022-08-19T07:04:42;18.35;;;16.3;;
39214;SDS011;24932;51.746;14.334;2022-08-19T07:08:41;20.0;;;15.45;;
39214;SDS011;24932;51.746;14.334;2022-08-19T07:12:40;17.35;;;15.55;;
39214;SDS011;24932;51.746;14.334;2022-08-19T07:16:43;16.75;;;15.05;;
39214;SDS011;24932;51.746;14.334;2022-08-19T07:20:42;18.45;;;16.12;;
39214;SDS011;24932;51.746;14.334;2022-08-19T07:24:51;21.02;;;15.65;;
39214;SDS011;24932;51.746;14.334;2022-08-19T07:28:51;20.02;;;17.02;;
39214;SDS011;24932;51.746;14.334;2022-08-19T07:32:40;17.2;;;15.4;;
39214;SDS011;24932;51.746;14.334;2022-08-19T07:36:41;21.17;;;17.25;;
39214;SDS011;24932;51.746;14.334;2022-08-19T07:40:39;22.48;;;17.3;;
39214;SDS011;24932;51.746;14.334;2022-08-19T07:44:40;18.6;;;16.75;;
39214;SDS011;24932;51.746;14.334;2022-08-19T07:48:41;20.83;;;17.98;;
39214;SDS011;24932;51.746;14.334;2022-08-19T07:52:39;22.2;;;19.73;;
39214;SDS011;24932;51.746;14.334;2022-08-19T07:56:40;19.23;;;16.95;;
39214;SDS011;24932;51.746;14.334;2022-08-19T08:00:40;22.5;;;15.9;;
39214;SDS011;24932;51.746;14.334;2022-08-19T08:04:40;20.2;;;17.98;;
39214;SDS011;24932;51.746;14.334;2022-08-19T08:08:48;22.52;;;20.23;;
39214;SDS011;24932;51.746;14.334;2022-08-19T08:12:41;24.85;;;18.98;;
39214;SDS011;24932;51.746;14.334;2022-08-19T08:16:48;22.25;;;18.95;;
39214;SDS011;24932;51.746;14.334;2022-08-19T08:20:40;22.4;;;20.1;;
39214;SDS011;24932;51.746;14.334;2022-08-19T08:24:40;24.87;;;21.62;;
39214;SDS011;24932;51.746;14.334;2022-08-19T08:28:41;24.75;;;22.13;;
39214;SDS011;24932;51.746;14.334;2022-08-19T08:32:41;23.33;;;20.92;;
39214;SDS011;24932;51.746;14.334;2022-08-19T08:36:41;26.7;;;21.15;;
39214;SDS011;24932;51.746;14.334;2022-08-19T08:40:43;26.12;;;21.58;;
39214;SDS011;24932;51.746;14.334;2022-08-19T08:44:43;23.55;;;20.62;;
39214;SDS011;24932;51.746;14.334;2022-08-19T08:48:41;25.52;;;19.0;;
39214;SDS011;24932;51.746;14.334;2022-08-19T08:52:44;22.62;;;19.52;;
39214;SDS011;24932;51.746;14.334;2022-08-19T08:56:39;21.62;;;19.27;;
39214;SDS011;24932;51.746;14.334;2022-08-19T09:00:41;24.98;;;18.65;;
39214;SDS011;24932;51.746;14.334;2022-08-19T09:04:40;34.08;;;19.48;;
39214;SDS011;24932;51.746;14.334;2022-08-19T09:08:46;20.48;;;18.37;;
39214;SDS011;24932;51.746;14.334;2022-08-19T09:12:44;22.02;;;18.58;;
39214;SDS011;24932;51.746;14.334;2022-08-19T09:16:41;20.12;;;17.33;;
39214;SDS011;24932;51.746;14.334;2022-08-19T09:20:43;24.73;;;21.15;;
39214;SDS011;24932;51.746;14.334;2022-08-19T09:24:40;21.0;;;17.23;;
39214;SDS011;24932;51.746;14.334;2022-08-19T09:28:45;21.17;;;18.7;;
39214;SDS011;24932;51.746;14.334;2022-08-19T09:32:40;20.52;;;17.5;;
39214;SDS011;24932;51.746;14.334;2022-08-19T09:36:40;20.0;;;17.92;;
39214;SDS011;24932;51.746;14.334;2022-08-19T09:40:42;18.98;;;16.9;;
39214;SDS011;24932;51.746;14.334;2022-08-19T09:44:41;19.9;;;17.4;;
39214;SDS011;24932;51.746;14.334;2022-08-19T09:48:39;21.75;;;17.6;;
39214;SDS011;24932;51.746;14.334;2022-08-19T09:52:55;19.9;;;17.73;;
39214;SDS011;24932;51.746;14.334;2022-08-19T09:56:42;19.8;;;17.02;;
39214;SDS011;24932;51.746;14.334;2022-08-19T10:00:41;26.85;;;19.23;;
39214;SDS011;24932;51.746;14.334;2022-08-19T10:04:40;19.55;;;17.23;;
39214;SDS011;24932;51.746;14.334;2022-08-19T10:08:50;20.92;;;17.62;;
39214;SDS011;24932;51.746;14.334;2022-08-19T10:12:41;19.8;;;17.8;;
39214;SDS011;24932;51.746;14.334;2022-08-19T10:16:40;19.48;;;17.02;;
39214;SDS011;24932;51.746;14.334;2022-08-19T10:20:40;19.9;;;17.8;;
39214;SDS011;24932;51.746;14.334;2022-08-19T10:24:41;23.7;;;16.85;;
39214;SDS011;24932;51.746;14.334;2022-08-19T10:28:42;20.98;;;18.05;;
39214;SDS011;24932;51.746;14.334;2022-08-19T10:32:46;19.65;;;17.23;;
39214;SDS011;24932;51.746;14.334;2022-08-19T10:36:57;19.73;;;17.8;;
39214;SDS011;24932;51.746;14.334;2022-08-19T10:40:40;22.77;;;20.1;;
39214;SDS011;24932;51.746;14.334;2022-08-19T10:44:40;20.55;;;18.3;;
39214;SDS011;24932;51.746;14.334;2022-08-19T10:48:41;21.23;;;18.95;;
39214;SDS011;24932;51.746;14.334;2022-08-19T10:52:49;20.23;;;18.12;;
39214;SDS011;24932;51.746;14.334;2022-08-19T10:56:41;22.13;;;19.77;;
39214;SDS011;24932;51.746;14.334;2022-08-19T11:00:40;20.58;;;18.37;;
39214;SDS011;24932;51.746;14.334;2022-08-19T11:04:41;21.4;;;19.17;;
39214;SDS011;24932;51.746;14.334;2022-08-19T11:08:40;24.4;;;21.05;;
39214;SDS011;24932;51.746;14.334;2022-08-19T11:12:41;21.8;;;19.6;;
39214;SDS011;24932;51.746;14.334;2022-08-19T11:16:41;30.0;;;22.85;;
39214;SDS011;24932;51.746;14.334;2022-08-19T11:20:40;27.17;;;22.08;;
39214;SDS011;24932;51.746;14.334;2022-08-19T11:24:40;30.0;;;21.52;;
39214;SDS011;24932;51.746;14.334;2022-08-19T11:28:40;20.8;;;18.77;;
39214;SDS011;24932;51.746;14.334;2022-08-19T11:32:40;24.77;;;22.08;;
39214;SDS011;24932;51.746;14.334;2022-08-19T11:36:41;25.88;;;21.3;;
39214;SDS011;24932;51.746;14.334;2022-08-19T11:40:39;23.55;;;20.37;;
39214;SDS011;24932;51.746;14.334;2022-08-19T11:44:40;23.58;;;20.23;;
39214;SDS011;24932;51.746;14.334;2022-08-19T11:48:40;24.33;;;20.2;;
39214;SDS011;24932;51.746;14.334;2022-08-19T11:52:40;21.9;;;19.52;;
39214;SDS011;24932;51.746;14.334;2022-08-19T11:56:41;23.42;;;21.08;;
39214;SDS011;24932;51.746;14.334;2022-08-19T12:00:43;23.38;;;21.08;;
39214;SDS011;24932;51.746;14.334;2022-08-19T12:04:41;23.4;;;21.0;;
39214;SDS011;24932;51.746;14.334;2022-08-19T12:08:40;23.75;;;21.45;;
39214;SDS011;24932;51.746;14.334;2022-08-19T12:12:40;22.83;;;20.62;;
39214;SDS011;24932;51.746;14.334;2022-08-19T12:16:49;27.08;;;21.35;;
39214;SDS011;24932;51.746;14.334;2022-08-19T12:20:41;25.52;;;21.6;;
39214;SDS011;24932;51.746;14.334;2022-08-19T12:24:41;24.7;;;22.3;;
39214;SDS011;24932;51.746;14.334;2022-08-19T12:28:41;26.5;;;23.67;;
39214;SDS011;24932;51.746;14.334;2022-08-19T12:32:40;28.65;;;25.75;;
39214;SDS011;24932;51.746;14.334;2022-08-19T12:36:40;27.77;;;24.87;;
39214;SDS011;24932;51.746;14.334;2022-08-19T12:40:40;28.05;;;25.17;;
39214;SDS011;24932;51.746;14.334;2022-08-19T12:44:42;30.7;;;27.5;;
39214;SDS011;24932;51.746;14.334;2022-08-19T12:48:41;29.17;;;26.15;;
39214;SDS011;24932;51.746;14.334;2022-08-19T12:52:40;28.75;;;25.55;;
39214;SDS011;24932;51.746;14.334;2022-08-19T12:56:41;36.03;;;24.95;;
39214;SDS011;24932;51.746;14.334;2022-08-19T13:00:40;26.75;;;24.05;;
39214;SDS011;24932;51.746;14.334;2022-08-19T13:04:41;27.17;;;24.35;;
39214;SDS011;24932;51.746;14.334;2022-08-19T13:08:40;31.1;;;26.85;;
39214;SDS011;24932;51.746;14.334;2022-08-19T13:12:41;29.45;;;25.25;;
39214;SDS011;24932;51.746;14.334;2022-08-19T13:16:40;34.72;;;29.42;;
39214;SDS011;24932;51.746;14.334;2022-08-19T13:20:39;32.65;;;29.15;;
39214;SDS011;24932;51.746;14.334;2022-08-19T13:24:46;31.73;;;28.55;;
39214;SDS011;24932;51.746;14.334;2022-08-19T13:28:41;32.78;;;29.3;;
39214;SDS011;24932;51.746;14.334;2022-08-19T13:32:42;32.53;;;29.3;;
39214;SDS011;24932;51.746;14.334;2022-08-19T13:36:41;34.42;;;29.35;;
39214;SDS011;24932;51.746;14.334;2022-08-19T13:40:41;32.83;;;29.42;;
39214;SDS011;24932;51.746;14.334;2022-08-19T13:44:40;34.42;;;30.73;;
39214;SDS011;24932;51.746;14.334;2022-08-19T13:48:40;33.15;;;29.55;;
39214;SDS011;24932;51.746;14.334;2022-08-19T13:52:40;29.98;;;26.98;;
39214;SDS011;24932;51.746;14.334;2022-08-19T13:56:41;31.33;;;27.95;;
39214;SDS011;24932;51.746;14.334;2022-08-19T14:00:43;31.5;;;28.23;;
39214;SDS011;24932;51.746;14.334;2022-08-19T14:04:39;32.58;;;28.58;;
39214;SDS011;24932;51.746;14.334;2022-08-19T14:08:46;30.2;;;27.0;;
39214;SDS011;24932;51.746;14.334;2022-08-19T14:12:41;27.77;;;24.85;;
39214;SDS011;24932;51.746;14.334;2022-08-19T14:16:40;30.6;;;27.4;;
39214;SDS011;24932;51.746;14.334;2022-08-19T14:20:41;35.2;;;27.17;;
39214;SDS011;24932;51.746;14.334;2022-08-19T14:24:39;29.55;;;26.37;;
39214;SDS011;24932;51.746;14.334;2022-08-19T14:28:41;31.95;;;26.83;;
39214;SDS011;24932;51.746;14.334;2022-08-19T14:32:40;31.62;;;24.8;;
39214;SDS011;24932;51.746;14.334;2022-08-19T14:36:40;35.4;;;27.33;;
39214;SDS011;24932;51.746;14.334;2022-08-19T14:40:40;48.33;;;31.9;;
39214;SDS011;24932;51.746;14.334;2022-08-19T14:44:41;39.88;;;31.3;;
39214;SDS011;24932;51.746;14.334;2022-08-19T14:48:42;44.1;;;33.2;;
39214;SDS011;24932;51.746;14.334;2022-08-19T14:52:40;43.85;;;33.28;;
39214;SDS011;24932;51.746;14.334;2022-08-19T14:56:40;48.3;;;35.5;;
39214;SDS011;24932;51.746;14.334;2022-08-19T15:00:40;47.8;;;33.15;;
39214;SDS011;24932;51.746;14.334;2022-08-19T15:04:39;47.67;;;32.97;;
39214;SDS011;24932;51.746;14.334;2022-08-19T15:08:41;42.17;;;30.02;;
39214;SDS011;24932;51.746;14.334;2022-08-19T15:12:40;41.92;;;30.0;;
39214;SDS011;24932;51.746;14.334;2022-08-19T15:16:41;38.97;;;27.17;;
39214;SDS011;24932;51.746;14.334;2022-08-19T15:20:42;37.65;;;27.55;;
39214;SDS011;24932;51.746;14.334;2022-08-19T15:24:48;39.67;;;27.13;;
39214;SDS011;24932;51.746;14.334;2022-08-19T15:28:40;38.4;;;26.0;;
39214;SDS011;24932;51.746;14.334;2022-08-19T15:32:41;36.6;;;25.83;;
39214;SDS011;24932;51.746;14.334;2022-08-19T15:36:40;39.45;;;27.33;;
39214;SDS011;24932;51.746;14.334;2022-08-19T15:40:40;38.17;;;27.3;;
39214;SDS011;24932;51.746;14.334;2022-08-19T15:44:41;34.85;;;26.33;;
39214;SDS011;24932;51.746;14.334;2022-08-19T15:48:40;35.67;;;26.87;;
39214;SDS011;24932;51.746;14.334;2022-08-19T15:52:51;39.75;;;28.55;;
39214;SDS011;24932;51.746;14.334;2022-08-19T15:56:41;35.42;;;27.73;;
39214;SDS011;24932;51.746;14.334;2022-08-19T16:00:40;29.98;;;23.27;;
39214;SDS011;24932;51.746;14.334;2022-08-19T16:04:40;28.17;;;20.02;;
39214;SDS011;24932;51.746;14.334;2022-08-19T16:08:49;27.05;;;19.73;;
39214;SDS011;24932;51.746;14.334;2022-08-19T16:12:40;24.0;;;19.15;;
39214;SDS011;24932;51.746;14.334;2022-08-19T16:16:40;23.48;;;19.23;;
39214;SDS011;24932;51.746;14.334;2022-08-19T16:20:41;21.15;;;16.35;;
39214;SDS011;24932;51.746;14.334;2022-08-19T16:24:40;19.37;;;16.1;;
39214;SDS011;24932;51.746;14.334;2022-08-19T16:28:41;18.9;;;16.1;;
39214;SDS011;24932;51.746;14.334;2022-08-19T16:32:41;16.12;;;13.68;;
39214;SDS011;24932;51.746;14.334;2022-08-19T16:36:41;16.5;;;13.75;;
39214;SDS011;24932;51.746;14.334;2022-08-19T16:40:46;17.67;;;13.62;;
39214;SDS011;24932;51.746;14.334;2022-08-19T16:44:41;14.35;;;12.0;;
39214;SDS011;24932;51.746;14.334;2022-08-19T16:48:39;15.35;;;12.63;;
39214;SDS011;24932;51.746;14.334;2022-08-19T16:52:40;23.52;;;14.35;;
39214;SDS011;24932;51.746;14.334;2022-08-19T16:56:39;19.27;;;14.13;;
39214;SDS011;24932;51.746;14.334;2022-08-19T17:00:41;18.5;;;14.13;;
39214;SDS011;24932;51.746;14.334;2022-08-19T17:04:40;22.5;;;17.05;;
39214;SDS011;24932;51.746;14.334;2022-08-19T17:08:39;19.4;;;16.35;;
39214;SDS011;24932;51.746;14.334;2022-08-19T17:12:40;20.92;;;17.05;;
39214;SDS011;24932;51.746;14.334;2022-08-19T17:16:41;16.67;;;14.45;;
39214;SDS011;24932;51.746;14.334;2022-08-19T17:20:40;17.9;;;15.25;;
39214;SDS011;24932;51.746;14.334;2022-08-19T17:24:40;20.1;;;15.85;;
39214;SDS011;24932;51.746;14.334;2022-08-19T17:28:40;24.15;;;16.73;;
39214;SDS011;24932;51.746;14.334;2022-08-19T17:32:41;21.85;;;17.87;;
39214;SDS011;24932;51.746;14.334;2022-08-19T17:36:40;29.9;;;20.27;;
39214;SDS011;24932;51.746;14.334;2022-08-19T17:40:40;25.2;;;19.55;;
39214;SDS011;24932;51.746;14.334;2022-08-19T17:44:40;26.62;;;20.92;;
39214;SDS011;24932;51.746;14.334;2022-08-19T17:48:40;29.02;;;21.83;;
39214;SDS011;24932;51.746;14.334;2022-08-19T17:52:41;34.5;;;25.15;;
39214;SDS011;24932;51.746;14.334;2022-08-19T17:56:41;38.5;;;27.1;;
39214;SDS011;24932;51.746;14.334;2022-08-19T18:00:54;42.13;;;28.0;;
39214;SDS011;24932;51.746;14.334;2022-08-19T18:04:40;43.47;;;30.05;;
39214;SDS011;24932;51.746;14.334;2022-08-19T18:08:39;44.47;;;30.75;;
39214;SDS011;24932;51.746;14.334;2022-08-19T18:12:40;50.0;;;32.42;;
39214;SDS011;24932;51.746;14.334;2022-08-19T18:16:39;43.65;;;29.9;;
39214;SDS011;24932;51.746;14.334;2022-08-19T18:20:40;44.33;;;30.88;;
39214;SDS011;24932;51.746;14.334;2022-08-19T18:24:40;44.38;;;32.47;;
39214;SDS011;24932;51.746;14.334;2022-08-19T18:28:50;51.67;;;31.37;;
39214;SDS011;24932;51.746;14.334;2022-08-19T18:32:40;48.13;;;30.92;;
39214;SDS011;24932;51.746;14.334;2022-08-19T18:36:54;50.83;;;31.0;;
39214;SDS011;24932;51.746;14.334;2022-08-19T18:40:41;54.15;;;32.53;;
39214;SDS011;24932;51.746;14.334;2022-08-19T18:44:40;48.47;;;31.98;;
39214;SDS011;24932;51.746;14.334;2022-08-19T18:48:40;43.28;;;29.77;;
39214;SDS011;24932;51.746;14.334;2022-08-19T18:52:41;41.1;;;30.08;;
39214;SDS011;24932;51.746;14.334;2022-08-19T18:56:40;42.3;;;29.1;;
39214;SDS011;24932;51.746;14.334;2022-08-19T19:00:39;42.9;;;28.5;;
39214;SDS011;24932;51.746;14.334;2022-08-19T19:04:40;39.92;;;28.25;;
39214;SDS011;24932;51.746;14.334;2022-08-19T19:08:40;32.45;;;24.67;;
39214;SDS011;24932;51.746;14.334;2022-08-19T19:12:41;35.67;;;25.73;;
39214;SDS011;24932;51.746;14.334;2022-08-19T19:16:40;38.97;;;25.17;;
39214;SDS011;24932;51.746;14.334;2022-08-19T19:20:40;35.13;;;26.12;;
39214;SDS011;24932;51.746;14.334;2022-08-19T19:24:41;35.45;;;25.4;;
39214;SDS011;24932;51.746;14.334;2022-08-19T19:28:41;33.5;;;23.7;;
39214;SDS011;24932;51.746;14.334;2022-08-19T19:32:39;34.25;;;24.98;;
39214;SDS011;24932;51.746;14.334;2022-08-19T19:36:39;33.75;;;23.33;;
39214;SDS011;24932;51.746;14.334;2022-08-19T19:40:41;30.12;;;21.83;;
39214;SDS011;24932;51.746;14.334;2022-08-19T19:44:47;31.35;;;23.92;;
39214;SDS011;24932;51.746;14.334;2022-08-19T19:48:41;30.37;;;22.23;;
39214;SDS011;24932;51.746;14.334;2022-08-19T19:52:40;31.37;;;21.73;;
39214;SDS011;24932;51.746;14.334;2022-08-19T19:56:40;27.3;;;21.45;;
39214;SDS011;24932;51.746;14.334;2022-08-19T20:00:41;27.95;;;21.75;;
39214;SDS011;24932;51.746;14.334;2022-08-19T20:04:40;30.05;;;20.73;;
39214;SDS011;24932;51.746;14.334;2022-08-19T20:08:41;34.72;;;21.08;;
39214;SDS011;24932;51.746;14.334;2022-08-19T20:12:40;25.9;;;19.58;;
39214;SDS011;24932;51.746;14.334;2022-08-19T20:16:40;26.77;;;21.27;;
39214;SDS011;24932;51.746;14.334;2022-08-19T20:20:40;28.33;;;20.1;;
39214;SDS011;24932;51.746;14.334;2022-08-19T20:24:41;25.75;;;20.85;;
39214;SDS011;24932;51.746;14.334;2022-08-19T20:28:50;30.95;;;21.0;;
39214;SDS011;24932;51.746;14.334;2022-08-19T20:32:40;30.45;;;21.2;;
39214;SDS011;24932;51.746;14.334;2022-08-19T20:36:41;26.3;;;21.42;;
39214;SDS011;24932;51.746;14.334;2022-08-19T20:40:40;26.12;;;20.75;;
39214;SDS011;24932;51.746;14.334;2022-08-19T20:44:41;25.4;;;19.65;;
39214;SDS011;24932;51.746;14.334;2022-08-19T20:48:40;23.87;;;19.7;;
39214;SDS011;24932;51.746;14.334;2022-08-19T20:52:53;24.08;;;19.83;;
39214;SDS011;24932;51.746;14.334;2022-08-19T20:56:40;23.58;;;18.52;;
39214;SDS011;24932;51.746;14.334;2022-08-19T21:00:40;25.33;;;20.73;;
39214;SDS011;24932;51.746;14.334;2022-08-19T21:04:41;23.67;;;20.35;;
39214;SDS011;24932;51.746;14.334;2022-08-19T21:08:40;28.92;;;20.25;;
39214;SDS011;24932;51.746;14.334;2022-08-19T21:12:40;28.25;;;21.08;;
39214;SDS011;24932;51.746;14.334;2022-08-19T21:16:40;26.48;;;19.67;;
39214;SDS011;24932;51.746;14.334;2022-08-19T21:20:40;25.9;;;21.15;;
39214;SDS011;24932;51.746;14.334;2022-08-19T21:24:41;25.98;;;19.7;;
39214;SDS011;24932;51.746;14.334;2022-08-19T21:28:40;22.33;;;19.98;;
39214;SDS011;24932;51.746;14.334;2022-08-19T21:32:39;30.48;;;20.6;;
39214;SDS011;24932;51.746;14.334;2022-08-19T21:36:41;26.02;;;20.45;;
39214;SDS011;24932;51.746;14.334;2022-08-19T21:40:40;26.37;;;20.0;;
39214;SDS011;24932;51.746;14.334;2022-08-19T21:44:46;23.38;;;19.37;;
39214;SDS011;24932;51.746;14.334;2022-08-19T21:48:41;26.98;;;20.92;;
39214;SDS011;24932;51.746;14.334;2022-08-19T21:52:40;23.58;;;20.6;;
39214;SDS011;24932;51.746;14.334;2022-08-19T21:56:41;24.42;;;20.37;;
39214;SDS011;24932;51.746;14.334;2022-08-19T22:04:40;26.15;;;21.6;;
39214;SDS011;24932;51.746;14.334;2022-08-19T22:08:40;31.83;;;23.65;;
39214;SDS011;24932;51.746;14.334;2022-08-19T22:12:52;27.67;;;22.33;;
39214;SDS011;24932;51.746;14.334;2022-08-19T22:16:40;31.98;;;23.17;;
39214;SDS011;24932;51.746;14.334;2022-08-19T22:20:41;26.55;;;22.13;;
39214;SDS011;24932;51.746;14.334;2022-08-19T22:24:41;27.0;;;21.8;;
39214;SDS011;24932;51.746;14.334;2022-08-19T22:28:41;27.52;;;23.0;;
39214;SDS011;24932;51.746;14.334;2022-08-19T22:32:42;25.92;;;21.85;;
39214;SDS011;24932;51.746;14.334;2022-08-19T22:36:40;26.33;;;23.15;;
39214;SDS011;24932;51.746;14.334;2022-08-19T22:40:42;29.6;;;22.7;;
39214;SDS011;24932;51.746;14.334;2022-08-19T22:44:40;28.85;;;24.23;;
39214;SDS011;24932;51.746;14.334;2022-08-19T22:48:39;32.08;;;25.08;;
39214;SDS011;24932;51.746;14.334;2022-08-19T22:52:54;31.27;;;22.7;;
39214;SDS011;24932;51.746;14.334;2022-08-19T22:56:40;32.1;;;24.63;;
39214;SDS011;24932;51.746;14.334;2022-08-19T23:00:40;30.45;;;23.27;;
39214;SDS011;24932;51.746;14.334;2022-08-19T23:04:41;31.27;;;24.27;;
39214;SDS011;24932;51.746;14.334;2022-08-19T23:08:40;32.0;;;23.55;;
39214;SDS011;24932;51.746;14.334;2022-08-19T23:12:42;30.3;;;23.05;;
39214;SDS011;24932;51.746;14.334;2022-08-19T23:16:41;28.27;;;22.23;;